sensor_id;sensor_type;location;lat;lon;timestamp;P1;durP1;ratioP1;P2;durP2;ratioP2
3261;SDS011;1643;47.746;9.000;2024-01-15T00:01:28;14.27;;;7.77;;
3261;SDS011;1643;47.746;9.000;2024-01-15T00:03:54;12.20;;;7.07;;
3261;SDS011;1643;47.746;9.000;2024-01-15T00:06:20;14.30;;;6.50;;
3261;SDS011;1643;47.746;9.000;2024-01-15T00:08:46;13.67;;;7.30;;
3261;SDS011;1643;47.746;9.000;2024-01-15T00:11:11;11.43;;;6.40;;
3261;SDS011;1643;47.746;9.000;2024-01-15T00:13:37;13.10;;;8.10;;
3261;SDS011;1643;47.746;9.000;2024-01-15T00:16:03;13.20;;;6.23;;
3261;SDS011;1643;47.746;9.000;2024-01-15T00:18:30;9.03;;;6.77;;
3261;SDS011;1643;47.746;9.000;2024-01-15T00:20:56;19.77;;;6.90;;
3261;SDS011;1643;47.746;9.000;2024-01-15T00:23:22;10.23;;;6.27;;
3261;SDS011;1643;47.746;9.000;2024-01-15T00:25:48;13.57;;;6.67;;
3261;SDS011;1643;47.746;9.000;2024-01-15T00:28:15;10.10;;;6.63;;
3261;SDS011;1643;47.746;9.000;2024-01-15T00:30:41;10.50;;;6.40;;
3261;SDS011;1643;47.746;9.000;2024-01-15T00:33:07;10.10;;;5.43;;
3261;SDS011;1643;47.746;9.000;2024-01-15T00:35:32;9.43;;;5.37;;
3261;SDS011;1643;47.746;9.000;2024-01-15T00:37:58;7.90;;;4.90;;
3261;SDS011;1643;47.746;9.000;2024-01-15T00:40:24;10.30;;;5.70;;
3261;SDS011;1643;47.746;9.000;2024-01-15T00:42:50;7.80;;;5.10;;
3261;SDS011;1643;47.746;9.000;2024-01-15T00:45:16;9.60;;;5.53;;
3261;SDS011;1643;47.746;9.000;2024-01-15T00:47:42;11.67;;;6.47;;
3261;SDS011;1643;47.746;9.000;2024-01-15T00:50:07;7.40;;;4.50;;
3261;SDS011;1643;47.746;9.000;2024-01-15T00:52:33;9.70;;;4.70;;
3261;SDS011;1643;47.746;9.000;2024-01-15T00:54:59;7.83;;;5.23;;
3261;SDS011;1643;47.746;9.000;2024-01-15T00:57:25;6.87;;;4.67;;
3261;SDS011;1643;47.746;9.000;2024-01-15T00:59:50;6.70;;;4.67;;
3261;SDS011;1643;47.746;9.000;2024-01-15T01:02:16;10.90;;;5.83;;
3261;SDS011;1643;47.746;9.000;2024-01-15T01:04:42;8.60;;;5.40;;
3261;SDS011;1643;47.746;9.000;2024-01-15T01:07:07;8.03;;;4.40;;
3261;SDS011;1643;47.746;9.000;2024-01-15T01:09:33;8.23;;;5.27;;
3261;SDS011;1643;47.746;9.000;2024-01-15T01:11:59;6.17;;;4.53;;
3261;SDS011;1643;47.746;9.000;2024-01-15T01:14:24;10.60;;;5.60;;
3261;SDS011;1643;47.746;9.000;2024-01-15T01:16:50;6.23;;;3.83;;
3261;SDS011;1643;47.746;9.000;2024-01-15T01:19:16;7.07;;;4.83;;
3261;SDS011;1643;47.746;9.000;2024-01-15T01:21:41;5.50;;;4.13;;
3261;SDS011;1643;47.746;9.000;2024-01-15T01:24:07;6.47;;;4.27;;
3261;SDS011;1643;47.746;9.000;2024-01-15T01:26:33;5.20;;;3.87;;
3261;SDS011;1643;47.746;9.000;2024-01-15T01:28:58;7.93;;;4.00;;
3261;SDS011;1643;47.746;9.000;2024-01-15T01:31:24;6.07;;;3.50;;
3261;SDS011;1643;47.746;9.000;2024-01-15T01:33:49;5.30;;;3.37;;
3261;SDS011;1643;47.746;9.000;2024-01-15T01:36:15;4.87;;;3.27;;
3261;SDS011;1643;47.746;9.000;2024-01-15T01:38:41;6.50;;;3.77;;
3261;SDS011;1643;47.746;9.000;2024-01-15T01:41:07;5.93;;;3.80;;
3261;SDS011;1643;47.746;9.000;2024-01-15T01:43:33;5.30;;;3.33;;
3261;SDS011;1643;47.746;9.000;2024-01-15T01:46:00;4.60;;;2.83;;
3261;SDS011;1643;47.746;9.000;2024-01-15T01:48:26;5.50;;;3.23;;
3261;SDS011;1643;47.746;9.000;2024-01-15T01:50:57;4.40;;;3.10;;
3261;SDS011;1643;47.746;9.000;2024-01-15T01:53:25;7.43;;;3.20;;
3261;SDS011;1643;47.746;9.000;2024-01-15T01:55:52;5.00;;;3.80;;
3261;SDS011;1643;47.746;9.000;2024-01-15T01:58:19;6.47;;;3.43;;
3261;SDS011;1643;47.746;9.000;2024-01-15T02:00:45;6.10;;;3.20;;
3261;SDS011;1643;47.746;9.000;2024-01-15T02:03:12;5.70;;;3.60;;
3261;SDS011;1643;47.746;9.000;2024-01-15T02:05:38;5.77;;;3.43;;
3261;SDS011;1643;47.746;9.000;2024-01-15T02:08:05;6.70;;;3.50;;
3261;SDS011;1643;47.746;9.000;2024-01-15T02:10:30;7.67;;;4.30;;
3261;SDS011;1643;47.746;9.000;2024-01-15T02:12:56;5.90;;;3.90;;
3261;SDS011;1643;47.746;9.000;2024-01-15T02:15:22;5.73;;;4.10;;
3261;SDS011;1643;47.746;9.000;2024-01-15T02:20:24;5.80;;;4.10;;
3261;SDS011;1643;47.746;9.000;2024-01-15T02:22:50;7.60;;;4.03;;
3261;SDS011;1643;47.746;9.000;2024-01-15T02:25:16;7.93;;;4.10;;
3261;SDS011;1643;47.746;9.000;2024-01-15T02:27:42;7.53;;;5.07;;
3261;SDS011;1643;47.746;9.000;2024-01-15T02:30:09;7.67;;;4.37;;
3261;SDS011;1643;47.746;9.000;2024-01-15T02:32:38;10.23;;;5.43;;
3261;SDS011;1643;47.746;9.000;2024-01-15T02:35:04;5.67;;;3.57;;
3261;SDS011;1643;47.746;9.000;2024-01-15T02:37:30;9.97;;;5.50;;
3261;SDS011;1643;47.746;9.000;2024-01-15T02:39:55;5.80;;;4.00;;
3261;SDS011;1643;47.746;9.000;2024-01-15T02:42:21;10.97;;;7.00;;
3261;SDS011;1643;47.746;9.000;2024-01-15T02:44:47;11.33;;;6.63;;
3261;SDS011;1643;47.746;9.000;2024-01-15T02:47:13;9.23;;;5.43;;
3261;SDS011;1643;47.746;9.000;2024-01-15T02:49:39;8.80;;;4.70;;
3261;SDS011;1643;47.746;9.000;2024-01-15T02:52:05;8.87;;;5.77;;
3261;SDS011;1643;47.746;9.000;2024-01-15T02:54:31;12.83;;;5.83;;
3261;SDS011;1643;47.746;9.000;2024-01-15T02:56:57;10.73;;;6.03;;
3261;SDS011;1643;47.746;9.000;2024-01-15T02:59:22;11.83;;;6.77;;
3261;SDS011;1643;47.746;9.000;2024-01-15T03:01:48;10.87;;;6.00;;
3261;SDS011;1643;47.746;9.000;2024-01-15T03:04:13;11.33;;;6.70;;
3261;SDS011;1643;47.746;9.000;2024-01-15T03:06:39;10.03;;;6.30;;
3261;SDS011;1643;47.746;9.000;2024-01-15T03:09:05;10.93;;;6.00;;
3261;SDS011;1643;47.746;9.000;2024-01-15T03:11:36;11.60;;;5.87;;
3261;SDS011;1643;47.746;9.000;2024-01-15T03:14:03;11.40;;;5.27;;
3261;SDS011;1643;47.746;9.000;2024-01-15T03:16:29;6.83;;;4.73;;
3261;SDS011;1643;47.746;9.000;2024-01-15T03:18:55;11.33;;;5.83;;
3261;SDS011;1643;47.746;9.000;2024-01-15T03:21:20;8.53;;;4.50;;
3261;SDS011;1643;47.746;9.000;2024-01-15T03:23:46;8.13;;;4.80;;
3261;SDS011;1643;47.746;9.000;2024-01-15T03:26:11;9.50;;;4.80;;
3261;SDS011;1643;47.746;9.000;2024-01-15T03:28:37;7.20;;;4.50;;
3261;SDS011;1643;47.746;9.000;2024-01-15T03:31:03;8.07;;;4.90;;
3261;SDS011;1643;47.746;9.000;2024-01-15T03:33:28;7.07;;;4.77;;
3261;SDS011;1643;47.746;9.000;2024-01-15T03:35:54;10.27;;;5.60;;
3261;SDS011;1643;47.746;9.000;2024-01-15T03:38:20;11.23;;;5.90;;
3261;SDS011;1643;47.746;9.000;2024-01-15T03:40:45;9.27;;;5.30;;
3261;SDS011;1643;47.746;9.000;2024-01-15T03:43:11;7.70;;;4.90;;
3261;SDS011;1643;47.746;9.000;2024-01-15T03:45:37;9.70;;;5.47;;
3261;SDS011;1643;47.746;9.000;2024-01-15T03:48:03;9.93;;;5.63;;
3261;SDS011;1643;47.746;9.000;2024-01-15T03:50:29;8.90;;;4.60;;
3261;SDS011;1643;47.746;9.000;2024-01-15T03:52:54;11.73;;;5.73;;
3261;SDS011;1643;47.746;9.000;2024-01-15T03:55:20;10.77;;;5.90;;
3261;SDS011;1643;47.746;9.000;2024-01-15T03:57:46;7.77;;;4.90;;
3261;SDS011;1643;47.746;9.000;2024-01-15T04:00:11;9.47;;;6.50;;
3261;SDS011;1643;47.746;9.000;2024-01-15T04:02:37;9.80;;;4.83;;
3261;SDS011;1643;47.746;9.000;2024-01-15T04:05:03;10.97;;;5.70;;
3261;SDS011;1643;47.746;9.000;2024-01-15T04:07:29;8.07;;;5.23;;
3261;SDS011;1643;47.746;9.000;2024-01-15T04:09:54;9.77;;;5.37;;
3261;SDS011;1643;47.746;9.000;2024-01-15T04:12:20;10.93;;;6.10;;
3261;SDS011;1643;47.746;9.000;2024-01-15T04:14:46;7.67;;;5.40;;
3261;SDS011;1643;47.746;9.000;2024-01-15T04:17:11;10.13;;;5.60;;
3261;SDS011;1643;47.746;9.000;2024-01-15T04:19:37;9.30;;;5.03;;
3261;SDS011;1643;47.746;9.000;2024-01-15T04:22:02;10.03;;;5.90;;
3261;SDS011;1643;47.746;9.000;2024-01-15T04:24:28;8.40;;;5.43;;
3261;SDS011;1643;47.746;9.000;2024-01-15T04:26:56;9.30;;;5.30;;
3261;SDS011;1643;47.746;9.000;2024-01-15T04:29:21;8.73;;;5.50;;
3261;SDS011;1643;47.746;9.000;2024-01-15T04:31:47;9.13;;;5.33;;
3261;SDS011;1643;47.746;9.000;2024-01-15T04:34:13;10.07;;;5.87;;
3261;SDS011;1643;47.746;9.000;2024-01-15T04:36:39;11.30;;;5.63;;
3261;SDS011;1643;47.746;9.000;2024-01-15T04:39:05;8.07;;;4.40;;
3261;SDS011;1643;47.746;9.000;2024-01-15T04:41:31;11.00;;;5.73;;
3261;SDS011;1643;47.746;9.000;2024-01-15T04:43:56;11.93;;;5.20;;
3261;SDS011;1643;47.746;9.000;2024-01-15T04:46:22;8.47;;;5.03;;
3261;SDS011;1643;47.746;9.000;2024-01-15T04:48:48;11.03;;;6.13;;
3261;SDS011;1643;47.746;9.000;2024-01-15T04:51:13;11.50;;;6.80;;
3261;SDS011;1643;47.746;9.000;2024-01-15T04:53:39;10.77;;;5.23;;
3261;SDS011;1643;47.746;9.000;2024-01-15T04:56:04;8.63;;;5.20;;
3261;SDS011;1643;47.746;9.000;2024-01-15T04:58:30;8.07;;;4.80;;
3261;SDS011;1643;47.746;9.000;2024-01-15T05:00:56;8.90;;;5.17;;
3261;SDS011;1643;47.746;9.000;2024-01-15T05:03:21;8.90;;;5.57;;
3261;SDS011;1643;47.746;9.000;2024-01-15T05:05:47;10.07;;;6.00;;
3261;SDS011;1643;47.746;9.000;2024-01-15T05:08:13;9.47;;;5.87;;
3261;SDS011;1643;47.746;9.000;2024-01-15T05:10:38;8.90;;;5.10;;
3261;SDS011;1643;47.746;9.000;2024-01-15T05:13:04;9.53;;;5.93;;
3261;SDS011;1643;47.746;9.000;2024-01-15T05:15:30;9.47;;;6.13;;
3261;SDS011;1643;47.746;9.000;2024-01-15T05:17:55;13.17;;;6.40;;
3261;SDS011;1643;47.746;9.000;2024-01-15T05:20:21;12.43;;;5.43;;
3261;SDS011;1643;47.746;9.000;2024-01-15T05:22:47;12.63;;;6.30;;
3261;SDS011;1643;47.746;9.000;2024-01-15T05:25:12;12.80;;;7.00;;
3261;SDS011;1643;47.746;9.000;2024-01-15T05:27:38;11.40;;;6.30;;
3261;SDS011;1643;47.746;9.000;2024-01-15T05:30:04;11.37;;;6.77;;
3261;SDS011;1643;47.746;9.000;2024-01-15T05:32:30;14.00;;;7.33;;
3261;SDS011;1643;47.746;9.000;2024-01-15T05:34:55;9.87;;;6.20;;
3261;SDS011;1643;47.746;9.000;2024-01-15T05:37:21;8.90;;;6.17;;
3261;SDS011;1643;47.746;9.000;2024-01-15T05:39:47;15.53;;;6.50;;
3261;SDS011;1643;47.746;9.000;2024-01-15T05:42:12;12.63;;;6.40;;
3261;SDS011;1643;47.746;9.000;2024-01-15T05:44:38;12.43;;;6.60;;
3261;SDS011;1643;47.746;9.000;2024-01-15T05:47:03;10.40;;;5.90;;
3261;SDS011;1643;47.746;9.000;2024-01-15T05:49:29;12.43;;;6.60;;
3261;SDS011;1643;47.746;9.000;2024-01-15T05:51:55;11.17;;;6.40;;
3261;SDS011;1643;47.746;9.000;2024-01-15T05:54:21;12.27;;;7.90;;
3261;SDS011;1643;47.746;9.000;2024-01-15T05:56:46;9.70;;;5.93;;
3261;SDS011;1643;47.746;9.000;2024-01-15T05:59:12;13.70;;;7.13;;
3261;SDS011;1643;47.746;9.000;2024-01-15T06:01:38;12.20;;;6.53;;
3261;SDS011;1643;47.746;9.000;2024-01-15T06:04:03;11.13;;;6.63;;
3261;SDS011;1643;47.746;9.000;2024-01-15T06:06:29;10.23;;;6.23;;
3261;SDS011;1643;47.746;9.000;2024-01-15T06:08:54;11.90;;;6.93;;
3261;SDS011;1643;47.746;9.000;2024-01-15T06:11:20;9.57;;;5.50;;
3261;SDS011;1643;47.746;9.000;2024-01-15T06:13:46;13.73;;;6.87;;
3261;SDS011;1643;47.746;9.000;2024-01-15T06:16:13;13.43;;;7.03;;
3261;SDS011;1643;47.746;9.000;2024-01-15T06:18:40;11.67;;;6.10;;
3261;SDS011;1643;47.746;9.000;2024-01-15T06:21:05;14.80;;;6.50;;
3261;SDS011;1643;47.746;9.000;2024-01-15T06:23:31;10.60;;;5.57;;
3261;SDS011;1643;47.746;9.000;2024-01-15T06:25:57;11.20;;;5.30;;
3261;SDS011;1643;47.746;9.000;2024-01-15T06:28:22;10.27;;;6.07;;
3261;SDS011;1643;47.746;9.000;2024-01-15T06:30:48;10.67;;;4.80;;
3261;SDS011;1643;47.746;9.000;2024-01-15T06:33:14;9.40;;;5.20;;
3261;SDS011;1643;47.746;9.000;2024-01-15T06:35:39;12.37;;;6.10;;
3261;SDS011;1643;47.746;9.000;2024-01-15T06:38:05;12.90;;;6.10;;
3261;SDS011;1643;47.746;9.000;2024-01-15T06:40:30;11.80;;;5.63;;
3261;SDS011;1643;47.746;9.000;2024-01-15T06:42:56;9.57;;;4.93;;
3261;SDS011;1643;47.746;9.000;2024-01-15T06:45:22;8.50;;;5.23;;
3261;SDS011;1643;47.746;9.000;2024-01-15T06:47:47;8.50;;;4.87;;
3261;SDS011;1643;47.746;9.000;2024-01-15T06:50:13;9.47;;;4.67;;
3261;SDS011;1643;47.746;9.000;2024-01-15T06:52:38;7.30;;;4.10;;
3261;SDS011;1643;47.746;9.000;2024-01-15T06:55:04;13.10;;;5.10;;
3261;SDS011;1643;47.746;9.000;2024-01-15T06:57:31;10.93;;;5.57;;
3261;SDS011;1643;47.746;9.000;2024-01-15T06:59:56;15.83;;;5.57;;
3261;SDS011;1643;47.746;9.000;2024-01-15T07:02:22;8.83;;;4.50;;
3261;SDS011;1643;47.746;9.000;2024-01-15T07:04:47;7.30;;;4.20;;
3261;SDS011;1643;47.746;9.000;2024-01-15T07:07:13;8.43;;;4.47;;
3261;SDS011;1643;47.746;9.000;2024-01-15T07:09:39;9.67;;;4.90;;
3261;SDS011;1643;47.746;9.000;2024-01-15T07:12:05;7.00;;;3.83;;
3261;SDS011;1643;47.746;9.000;2024-01-15T07:14:31;9.23;;;5.37;;
3261;SDS011;1643;47.746;9.000;2024-01-15T07:16:56;6.80;;;4.00;;
3261;SDS011;1643;47.746;9.000;2024-01-15T07:19:22;8.77;;;3.50;;
3261;SDS011;1643;47.746;9.000;2024-01-15T07:21:48;7.80;;;4.10;;
3261;SDS011;1643;47.746;9.000;2024-01-15T07:24:13;9.40;;;4.83;;
3261;SDS011;1643;47.746;9.000;2024-01-15T07:26:39;6.53;;;4.10;;
3261;SDS011;1643;47.746;9.000;2024-01-15T07:29:05;6.83;;;4.00;;
3261;SDS011;1643;47.746;9.000;2024-01-15T07:31:30;7.10;;;4.20;;
3261;SDS011;1643;47.746;9.000;2024-01-15T07:33:57;7.00;;;4.00;;
3261;SDS011;1643;47.746;9.000;2024-01-15T07:36:23;9.30;;;4.67;;
3261;SDS011;1643;47.746;9.000;2024-01-15T07:38:48;5.87;;;4.30;;
3261;SDS011;1643;47.746;9.000;2024-01-15T07:41:14;7.57;;;4.30;;
3261;SDS011;1643;47.746;9.000;2024-01-15T07:43:40;10.40;;;3.93;;
3261;SDS011;1643;47.746;9.000;2024-01-15T07:46:05;8.37;;;4.93;;
3261;SDS011;1643;47.746;9.000;2024-01-15T07:48:32;11.10;;;5.20;;
3261;SDS011;1643;47.746;9.000;2024-01-15T07:50:57;9.80;;;6.00;;
3261;SDS011;1643;47.746;9.000;2024-01-15T07:53:23;10.97;;;5.90;;
3261;SDS011;1643;47.746;9.000;2024-01-15T07:55:49;10.67;;;5.50;;
3261;SDS011;1643;47.746;9.000;2024-01-15T07:58:15;11.10;;;5.03;;
3261;SDS011;1643;47.746;9.000;2024-01-15T08:00:40;10.27;;;5.50;;
3261;SDS011;1643;47.746;9.000;2024-01-15T08:03:06;11.80;;;6.30;;
3261;SDS011;1643;47.746;9.000;2024-01-15T08:05:31;14.93;;;5.30;;
3261;SDS011;1643;47.746;9.000;2024-01-15T08:07:58;11.50;;;5.13;;
3261;SDS011;1643;47.746;9.000;2024-01-15T08:10:24;12.10;;;5.30;;
3261;SDS011;1643;47.746;9.000;2024-01-15T08:12:50;9.63;;;5.33;;
3261;SDS011;1643;47.746;9.000;2024-01-15T08:15:15;11.80;;;6.47;;
3261;SDS011;1643;47.746;9.000;2024-01-15T08:17:42;11.50;;;5.67;;
3261;SDS011;1643;47.746;9.000;2024-01-15T08:20:08;12.97;;;6.63;;
3261;SDS011;1643;47.746;9.000;2024-01-15T08:22:35;11.73;;;6.43;;
3261;SDS011;1643;47.746;9.000;2024-01-15T08:25:01;11.33;;;5.13;;
3261;SDS011;1643;47.746;9.000;2024-01-15T08:27:26;10.80;;;5.40;;
3261;SDS011;1643;47.746;9.000;2024-01-15T08:29:53;11.97;;;6.60;;
3261;SDS011;1643;47.746;9.000;2024-01-15T08:32:18;11.40;;;5.77;;
3261;SDS011;1643;47.746;9.000;2024-01-15T08:34:44;7.67;;;5.00;;
3261;SDS011;1643;47.746;9.000;2024-01-15T08:37:11;12.10;;;5.97;;
3261;SDS011;1643;47.746;9.000;2024-01-15T08:39:37;10.27;;;5.50;;
3261;SDS011;1643;47.746;9.000;2024-01-15T08:42:03;9.57;;;4.90;;
3261;SDS011;1643;47.746;9.000;2024-01-15T08:44:30;10.17;;;6.30;;
3261;SDS011;1643;47.746;9.000;2024-01-15T08:46:55;9.27;;;5.37;;
3261;SDS011;1643;47.746;9.000;2024-01-15T08:49:21;12.53;;;6.40;;
3261;SDS011;1643;47.746;9.000;2024-01-15T08:51:47;10.90;;;5.17;;
3261;SDS011;1643;47.746;9.000;2024-01-15T08:54:13;10.63;;;4.83;;
3261;SDS011;1643;47.746;9.000;2024-01-15T08:56:39;7.37;;;4.17;;
3261;SDS011;1643;47.746;9.000;2024-01-15T08:59:05;14.10;;;6.27;;
3261;SDS011;1643;47.746;9.000;2024-01-15T09:01:31;10.73;;;5.87;;
3261;SDS011;1643;47.746;9.000;2024-01-15T09:03:57;11.50;;;6.83;;
3261;SDS011;1643;47.746;9.000;2024-01-15T09:06:23;12.50;;;6.50;;
3261;SDS011;1643;47.746;9.000;2024-01-15T09:08:48;10.30;;;5.57;;
3261;SDS011;1643;47.746;9.000;2024-01-15T09:11:14;8.90;;;5.03;;
3261;SDS011;1643;47.746;9.000;2024-01-15T09:13:40;11.57;;;6.13;;
3261;SDS011;1643;47.746;9.000;2024-01-15T09:16:05;13.03;;;6.00;;
3261;SDS011;1643;47.746;9.000;2024-01-15T09:18:31;9.47;;;5.30;;
3261;SDS011;1643;47.746;9.000;2024-01-15T09:20:57;9.30;;;5.00;;
3261;SDS011;1643;47.746;9.000;2024-01-15T09:23:23;8.67;;;5.33;;
3261;SDS011;1643;47.746;9.000;2024-01-15T09:25:48;12.20;;;5.90;;
3261;SDS011;1643;47.746;9.000;2024-01-15T09:28:14;8.20;;;4.50;;
3261;SDS011;1643;47.746;9.000;2024-01-15T09:30:40;10.97;;;5.80;;
3261;SDS011;1643;47.746;9.000;2024-01-15T09:33:06;9.97;;;5.00;;
3261;SDS011;1643;47.746;9.000;2024-01-15T09:35:31;11.03;;;5.90;;
3261;SDS011;1643;47.746;9.000;2024-01-15T09:37:57;9.63;;;5.87;;
3261;SDS011;1643;47.746;9.000;2024-01-15T09:40:23;10.90;;;6.50;;
3261;SDS011;1643;47.746;9.000;2024-01-15T09:42:49;12.83;;;6.43;;
3261;SDS011;1643;47.746;9.000;2024-01-15T09:45:16;11.30;;;5.60;;
3261;SDS011;1643;47.746;9.000;2024-01-15T09:47:42;10.20;;;6.60;;
3261;SDS011;1643;47.746;9.000;2024-01-15T09:50:08;12.00;;;6.13;;
3261;SDS011;1643;47.746;9.000;2024-01-15T09:52:34;11.83;;;6.00;;
3261;SDS011;1643;47.746;9.000;2024-01-15T09:55:01;12.30;;;5.63;;
3261;SDS011;1643;47.746;9.000;2024-01-15T09:57:28;11.07;;;5.53;;
3261;SDS011;1643;47.746;9.000;2024-01-15T09:59:54;8.50;;;5.43;;
3261;SDS011;1643;47.746;9.000;2024-01-15T10:02:22;11.90;;;5.47;;
3261;SDS011;1643;47.746;9.000;2024-01-15T10:04:48;9.13;;;4.77;;
3261;SDS011;1643;47.746;9.000;2024-01-15T10:07:15;9.33;;;4.90;;
3261;SDS011;1643;47.746;9.000;2024-01-15T10:09:44;11.90;;;6.97;;
3261;SDS011;1643;47.746;9.000;2024-01-15T10:12:11;8.93;;;5.50;;
3261;SDS011;1643;47.746;9.000;2024-01-15T10:14:37;13.07;;;7.33;;
3261;SDS011;1643;47.746;9.000;2024-01-15T10:17:12;13.80;;;7.80;;
3261;SDS011;1643;47.746;9.000;2024-01-15T10:19:42;15.57;;;7.57;;
3261;SDS011;1643;47.746;9.000;2024-01-15T10:22:09;16.27;;;8.23;;
3261;SDS011;1643;47.746;9.000;2024-01-15T10:24:39;12.47;;;6.67;;
3261;SDS011;1643;47.746;9.000;2024-01-15T10:27:06;9.77;;;6.00;;
3261;SDS011;1643;47.746;9.000;2024-01-15T10:29:35;11.80;;;6.73;;
3261;SDS011;1643;47.746;9.000;2024-01-15T10:32:02;11.00;;;5.37;;
3261;SDS011;1643;47.746;9.000;2024-01-15T10:34:28;7.67;;;4.63;;
3261;SDS011;1643;47.746;9.000;2024-01-15T10:36:55;11.50;;;5.53;;
3261;SDS011;1643;47.746;9.000;2024-01-15T10:39:21;9.83;;;5.40;;
3261;SDS011;1643;47.746;9.000;2024-01-15T10:41:48;7.17;;;4.00;;
3261;SDS011;1643;47.746;9.000;2024-01-15T10:44:14;7.53;;;4.50;;
3261;SDS011;1643;47.746;9.000;2024-01-15T10:46:40;8.33;;;4.63;;
3261;SDS011;1643;47.746;9.000;2024-01-15T10:49:06;7.90;;;4.80;;
3261;SDS011;1643;47.746;9.000;2024-01-15T10:51:32;9.47;;;4.60;;
3261;SDS011;1643;47.746;9.000;2024-01-15T10:53:59;10.03;;;5.37;;
3261;SDS011;1643;47.746;9.000;2024-01-15T10:56:27;6.90;;;3.90;;
3261;SDS011;1643;47.746;9.000;2024-01-15T10:58:55;9.53;;;5.47;;
3261;SDS011;1643;47.746;9.000;2024-01-15T11:01:21;10.33;;;5.43;;
3261;SDS011;1643;47.746;9.000;2024-01-15T11:03:47;6.97;;;4.40;;
3261;SDS011;1643;47.746;9.000;2024-01-15T11:06:17;6.63;;;4.30;;
3261;SDS011;1643;47.746;9.000;2024-01-15T11:08:48;6.60;;;4.77;;
3261;SDS011;1643;47.746;9.000;2024-01-15T11:11:15;6.70;;;4.63;;
3261;SDS011;1643;47.746;9.000;2024-01-15T11:13:42;6.10;;;3.73;;
3261;SDS011;1643;47.746;9.000;2024-01-15T11:16:11;6.63;;;3.70;;
3261;SDS011;1643;47.746;9.000;2024-01-15T11:18:39;7.03;;;4.53;;
3261;SDS011;1643;47.746;9.000;2024-01-15T11:34:21;7.57;;;4.97;;
3261;SDS011;1643;47.746;9.000;2024-01-15T11:40:20;6.60;;;4.00;;
3261;SDS011;1643;47.746;9.000;2024-01-15T11:42:47;5.87;;;4.10;;
3261;SDS011;1643;47.746;9.000;2024-01-15T11:45:13;9.80;;;5.20;;
3261;SDS011;1643;47.746;9.000;2024-01-15T11:50:27;6.50;;;4.03;;
3261;SDS011;1643;47.746;9.000;2024-01-15T11:53:02;7.03;;;5.13;;
3261;SDS011;1643;47.746;9.000;2024-01-15T11:55:38;7.57;;;4.57;;
3261;SDS011;1643;47.746;9.000;2024-01-15T11:58:09;6.37;;;4.20;;
3261;SDS011;1643;47.746;9.000;2024-01-15T12:00:35;8.30;;;4.97;;
3261;SDS011;1643;47.746;9.000;2024-01-15T12:03:14;6.43;;;4.23;;
3261;SDS011;1643;47.746;9.000;2024-01-15T12:05:40;9.57;;;4.43;;
3261;SDS011;1643;47.746;9.000;2024-01-15T12:08:08;5.93;;;4.43;;
3261;SDS011;1643;47.746;9.000;2024-01-15T12:10:37;7.50;;;4.63;;
3261;SDS011;1643;47.746;9.000;2024-01-15T12:13:09;6.90;;;3.90;;
3261;SDS011;1643;47.746;9.000;2024-01-15T12:15:39;6.70;;;4.03;;
3261;SDS011;1643;47.746;9.000;2024-01-15T12:18:07;5.70;;;3.50;;
3261;SDS011;1643;47.746;9.000;2024-01-15T12:20:33;7.23;;;4.27;;
3261;SDS011;1643;47.746;9.000;2024-01-15T12:23:01;8.23;;;4.70;;
3261;SDS011;1643;47.746;9.000;2024-01-15T12:25:31;6.63;;;4.07;;
3261;SDS011;1643;47.746;9.000;2024-01-15T12:27:57;6.57;;;4.37;;
3261;SDS011;1643;47.746;9.000;2024-01-15T12:30:24;8.20;;;4.30;;
3261;SDS011;1643;47.746;9.000;2024-01-15T12:32:54;4.73;;;3.70;;
3261;SDS011;1643;47.746;9.000;2024-01-15T12:35:20;6.57;;;4.80;;
3261;SDS011;1643;47.746;9.000;2024-01-15T12:37:47;6.67;;;4.20;;
3261;SDS011;1643;47.746;9.000;2024-01-15T12:40:13;7.40;;;4.47;;
3261;SDS011;1643;47.746;9.000;2024-01-15T12:42:45;7.07;;;4.10;;
3261;SDS011;1643;47.746;9.000;2024-01-15T12:45:11;7.37;;;3.87;;
3261;SDS011;1643;47.746;9.000;2024-01-15T12:47:37;6.03;;;3.70;;
3261;SDS011;1643;47.746;9.000;2024-01-15T12:50:13;5.53;;;3.80;;
3261;SDS011;1643;47.746;9.000;2024-01-15T12:52:42;7.80;;;4.10;;
3261;SDS011;1643;47.746;9.000;2024-01-15T12:55:08;6.03;;;3.80;;
3261;SDS011;1643;47.746;9.000;2024-01-15T12:57:36;8.43;;;4.13;;
3261;SDS011;1643;47.746;9.000;2024-01-15T13:00:03;4.73;;;3.47;;
3261;SDS011;1643;47.746;9.000;2024-01-15T13:02:32;9.63;;;4.20;;
3261;SDS011;1643;47.746;9.000;2024-01-15T13:04:59;5.87;;;4.10;;
3261;SDS011;1643;47.746;9.000;2024-01-15T13:07:25;6.60;;;3.83;;
3261;SDS011;1643;47.746;9.000;2024-01-15T13:09:51;6.97;;;4.40;;
3261;SDS011;1643;47.746;9.000;2024-01-15T13:12:18;7.03;;;3.90;;
3261;SDS011;1643;47.746;9.000;2024-01-15T13:14:45;5.00;;;3.80;;
3261;SDS011;1643;47.746;9.000;2024-01-15T13:17:12;6.23;;;4.03;;
3261;SDS011;1643;47.746;9.000;2024-01-15T13:19:39;5.33;;;3.93;;
3261;SDS011;1643;47.746;9.000;2024-01-15T13:22:05;7.10;;;4.23;;
3261;SDS011;1643;47.746;9.000;2024-01-15T13:24:33;7.17;;;4.27;;
3261;SDS011;1643;47.746;9.000;2024-01-15T13:26:58;7.53;;;3.90;;
3261;SDS011;1643;47.746;9.000;2024-01-15T13:29:25;5.53;;;3.47;;
3261;SDS011;1643;47.746;9.000;2024-01-15T13:31:50;10.00;;;5.03;;
3261;SDS011;1643;47.746;9.000;2024-01-15T13:34:16;5.77;;;3.40;;
3261;SDS011;1643;47.746;9.000;2024-01-15T13:36:42;6.60;;;3.80;;
3261;SDS011;1643;47.746;9.000;2024-01-15T13:39:07;6.67;;;4.00;;
3261;SDS011;1643;47.746;9.000;2024-01-15T13:41:34;9.33;;;4.33;;
3261;SDS011;1643;47.746;9.000;2024-01-15T13:44:00;6.60;;;4.13;;
3261;SDS011;1643;47.746;9.000;2024-01-15T13:46:26;5.37;;;3.97;;
3261;SDS011;1643;47.746;9.000;2024-01-15T13:48:52;6.40;;;3.57;;
3261;SDS011;1643;47.746;9.000;2024-01-15T13:51:18;6.50;;;3.90;;
3261;SDS011;1643;47.746;9.000;2024-01-15T13:53:44;5.70;;;3.70;;
3261;SDS011;1643;47.746;9.000;2024-01-15T13:56:09;6.20;;;4.33;;
3261;SDS011;1643;47.746;9.000;2024-01-15T13:58:35;6.40;;;4.00;;
3261;SDS011;1643;47.746;9.000;2024-01-15T14:01:02;8.10;;;4.80;;
3261;SDS011;1643;47.746;9.000;2024-01-15T14:03:29;7.57;;;4.83;;
3261;SDS011;1643;47.746;9.000;2024-01-15T14:05:55;7.13;;;4.50;;
3261;SDS011;1643;47.746;9.000;2024-01-15T14:08:20;6.37;;;4.60;;
3261;SDS011;1643;47.746;9.000;2024-01-15T14:10:46;9.57;;;4.53;;
3261;SDS011;1643;47.746;9.000;2024-01-15T14:13:12;8.40;;;4.87;;
3261;SDS011;1643;47.746;9.000;2024-01-15T14:15:37;8.80;;;4.90;;
3261;SDS011;1643;47.746;9.000;2024-01-15T14:18:03;8.70;;;5.23;;
3261;SDS011;1643;47.746;9.000;2024-01-15T14:20:29;7.27;;;5.20;;
3261;SDS011;1643;47.746;9.000;2024-01-15T14:22:55;11.83;;;6.57;;
3261;SDS011;1643;47.746;9.000;2024-01-15T14:25:21;7.43;;;4.60;;
3261;SDS011;1643;47.746;9.000;2024-01-15T14:27:47;9.33;;;5.40;;
3261;SDS011;1643;47.746;9.000;2024-01-15T14:30:13;12.83;;;5.40;;
3261;SDS011;1643;47.746;9.000;2024-01-15T14:32:41;8.87;;;6.17;;
3261;SDS011;1643;47.746;9.000;2024-01-15T14:35:07;12.30;;;6.80;;
3261;SDS011;1643;47.746;9.000;2024-01-15T14:37:35;9.53;;;6.07;;
3261;SDS011;1643;47.746;9.000;2024-01-15T14:40:05;12.63;;;6.27;;
3261;SDS011;1643;47.746;9.000;2024-01-15T14:42:32;11.93;;;6.30;;
3261;SDS011;1643;47.746;9.000;2024-01-15T14:44:59;10.03;;;5.33;;
3261;SDS011;1643;47.746;9.000;2024-01-15T14:47:26;11.10;;;6.67;;
3261;SDS011;1643;47.746;9.000;2024-01-15T14:49:52;12.13;;;6.20;;
3261;SDS011;1643;47.746;9.000;2024-01-15T14:52:18;11.27;;;6.37;;
3261;SDS011;1643;47.746;9.000;2024-01-15T14:54:45;12.30;;;6.60;;
3261;SDS011;1643;47.746;9.000;2024-01-15T14:57:12;11.00;;;6.60;;
3261;SDS011;1643;47.746;9.000;2024-01-15T14:59:38;12.77;;;5.77;;
3261;SDS011;1643;47.746;9.000;2024-01-15T15:02:04;10.00;;;6.03;;
3261;SDS011;1643;47.746;9.000;2024-01-15T15:04:30;10.57;;;6.47;;
3261;SDS011;1643;47.746;9.000;2024-01-15T15:06:56;11.53;;;6.20;;
3261;SDS011;1643;47.746;9.000;2024-01-15T15:09:22;10.20;;;5.73;;
3261;SDS011;1643;47.746;9.000;2024-01-15T15:11:47;13.17;;;6.70;;
3261;SDS011;1643;47.746;9.000;2024-01-15T15:14:13;10.90;;;6.00;;
3261;SDS011;1643;47.746;9.000;2024-01-15T15:16:39;11.13;;;6.10;;
3261;SDS011;1643;47.746;9.000;2024-01-15T15:19:04;11.10;;;6.43;;
3261;SDS011;1643;47.746;9.000;2024-01-15T15:21:30;12.43;;;6.60;;
3261;SDS011;1643;47.746;9.000;2024-01-15T15:23:56;13.00;;;7.90;;
3261;SDS011;1643;47.746;9.000;2024-01-15T15:26:21;12.43;;;7.87;;